createdAt,value
2019-04-27T00:00:58.604Z,47.86
2019-04-27T00:03:41.192Z,48.20
2019-04-27T00:06:08.694Z,46.98
2019-04-27T00:08:43.151Z,46.98
2019-04-27T00:11:29.360Z,48.09
2019-04-27T00:13:58.299Z,47.86
2019-04-27T00:16:40.519Z,47.86
2019-04-27T00:19:31.802Z,47.29
2019-04-27T00:22:10.691Z,48.90
2019-04-27T00:24:39.665Z,48.08
2019-04-27T00:27:08.297Z,49.17
2019-04-27T00:29:37.184Z,49.06
2019-04-27T00:32:05.851Z,48.81
2019-04-27T00:34:34.853Z,49.39
2019-04-27T00:37:09.920Z,49.53
2019-04-27T00:39:43.443Z,48.51
2019-04-27T00:42:13.506Z,49.32
2019-04-27T00:44:42.996Z,48.50
2019-04-27T00:47:11.696Z,47.33
2019-04-27T00:49:40.314Z,47.32
2019-04-27T00:52:08.900Z,47.77
2019-04-27T00:54:37.587Z,47.61
2019-04-27T00:57:13.100Z,46.01
2019-04-27T01:00:05.172Z,46.01
2019-04-27T01:02:44.510Z,46.93
2019-04-27T01:05:31.109Z,47.63
2019-04-27T01:07:59.757Z,47.67
2019-04-27T01:10:28.358Z,48.23
2019-04-27T01:12:56.976Z,48.49
2019-04-27T01:15:25.574Z,48.01
2019-04-27T01:18:07.131Z,49.71
2019-04-27T01:20:24.589Z,50.35
2019-04-27T01:22:53.284Z,49.53
2019-04-27T01:25:23.524Z,49.06
2019-04-27T01:28:11.181Z,49.06
2019-04-27T01:30:51.348Z,47.81
2019-04-27T01:33:20.059Z,48.69
2019-04-27T01:35:49.209Z,48.79
2019-04-27T01:38:19.195Z,48.47
2019-04-27T01:40:49.706Z,49.40
2019-04-27T01:43:18.701Z,48.09
2019-04-27T01:45:48.825Z,49.25
2019-04-27T01:48:23.800Z,49.28
2019-04-27T01:50:49.222Z,49.07
2019-04-27T01:53:19.060Z,49.65
2019-04-27T01:55:49.162Z,48.80
2019-04-27T01:58:20.214Z,48.92
2019-04-27T02:01:09.575Z,48.52
2019-04-27T02:03:59.049Z,47.22
2019-04-27T02:06:29.500Z,46.86
2019-04-27T02:08:59.557Z,46.60
2019-04-27T02:11:28.820Z,47.68
2019-04-27T02:13:59.448Z,46.54
2019-04-27T02:16:29.003Z,47.54
2019-04-27T02:18:58.631Z,48.45
2019-04-27T02:21:29.425Z,47.56
2019-04-27T02:23:59.851Z,48.19
2019-04-27T02:26:29.907Z,47.86
2019-04-27T02:29:19.486Z,47.71
2019-04-27T02:32:03.095Z,48.94
2019-04-27T02:34:34.445Z,49.04
2019-04-27T02:37:03.087Z,50.86
2019-04-27T02:39:31.634Z,49.42
2019-04-27T02:42:00.484Z,49.50
2019-04-27T02:44:35.176Z,49.09
2019-04-27T02:47:03.857Z,48.99
2019-04-27T02:49:32.442Z,47.90
2019-04-27T02:52:06.490Z,48.05
2019-04-27T02:54:35.366Z,47.22
2019-04-27T02:57:04.055Z,48.45
2019-04-27T02:59:32.893Z,47.87
2019-04-27T03:02:06.999Z,50.57
2019-04-27T03:04:35.590Z,50.54
2019-04-27T03:07:04.289Z,49.88
2019-04-27T03:09:32.898Z,52.66
2019-04-27T03:12:02.869Z,51.42
2019-04-27T03:14:50.614Z,50.20
2019-04-27T03:17:27.049Z,51.60
2019-04-27T03:20:20.318Z,50.64
2019-04-27T03:22:53.033Z,51.66
2019-04-27T03:25:32.037Z,51.11
2019-04-27T03:28:10.671Z,50.61
2019-04-27T03:30:42.465Z,50.47
2019-04-27T03:33:12.039Z,49.77
2019-04-27T03:35:43.035Z,50.88
2019-04-27T03:38:12.521Z,52.09
2019-04-27T03:40:41.366Z,52.52
2019-04-27T03:43:15.126Z,52.02
2019-04-27T03:45:43.709Z,52.52
2019-04-27T03:48:12.382Z,53.16
2019-04-27T03:50:50.405Z,53.18
2019-04-27T03:53:39.435Z,54.40
2019-04-27T03:56:20.052Z,53.81
2019-04-27T03:58:52.217Z,53.67
2019-04-27T04:01:20.885Z,53.90
2019-04-27T04:03:50.304Z,53.63
2019-04-27T04:06:19.410Z,54.66
2019-04-27T04:08:50.249Z,53.41
2019-04-27T04:11:39.535Z,52.83
2019-04-27T04:14:12.070Z,52.03
2019-04-27T04:16:51.751Z,52.25
2019-04-27T04:19:20.332Z,51.92
2019-04-27T04:21:50.334Z,51.70
2019-04-27T04:24:19.981Z,51.42
2019-04-27T04:26:50.320Z,53.10
2019-04-27T04:29:20.332Z,53.87
2019-04-27T04:31:50.276Z,55.16
2019-04-27T04:34:19.931Z,54.83
2019-04-27T04:36:50.400Z,53.14
2019-04-27T04:39:19.929Z,52.46
2019-04-27T04:41:59.685Z,50.33
2019-04-27T04:44:45.754Z,51.54
2019-04-27T04:47:33.924Z,49.28
2019-04-27T04:50:11.153Z,48.34
2019-04-27T04:52:32.922Z,49.46
2019-04-27T04:55:02.580Z,49.54
2019-04-27T04:57:31.719Z,49.07
2019-04-27T05:00:00.590Z,52.06
2019-04-27T05:02:29.459Z,50.83
2019-04-27T05:04:59.100Z,50.92
2019-04-27T05:07:29.592Z,48.83
2019-04-27T05:09:58.837Z,52.79
2019-04-27T05:12:28.773Z,51.52
2019-04-27T05:14:59.034Z,51.17
2019-04-27T05:17:29.524Z,49.64
2019-04-27T05:19:59.057Z,49.64
2019-04-27T05:22:29.536Z,48.11
2019-04-27T05:25:01.269Z,48.11
2019-04-27T05:27:31.090Z,47.46
2019-04-27T05:30:00.365Z,46.81
2019-04-27T05:32:29.450Z,48.12
2019-04-27T05:34:59.616Z,48.12
2019-04-27T05:37:31.627Z,46.13
2019-04-27T05:39:58.969Z,46.13
2019-04-27T05:42:28.661Z,47.89
2019-04-27T05:45:15.374Z,47.93
2019-04-27T05:47:51.770Z,47.48
2019-04-27T05:50:21.949Z,46.75
2019-04-27T05:52:49.697Z,47.73
2019-04-27T05:55:19.193Z,47.51
2019-04-27T05:57:49.034Z,48.47
2019-04-27T06:00:19.488Z,46.94
2019-04-27T06:02:48.798Z,45.60
2019-04-27T06:05:18.975Z,44.30
2019-04-27T06:07:48.734Z,41.06
2019-04-27T06:10:17.586Z,36.75
2019-04-27T06:12:46.228Z,35.03
2019-04-27T06:15:15.047Z,33.38
2019-04-27T06:17:44.270Z,31.21
2019-04-27T06:20:13.180Z,30.59
2019-04-27T06:22:41.775Z,30.16
2019-04-27T06:25:11.893Z,32.15
2019-04-27T06:27:40.905Z,32.47
2019-04-27T06:30:10.325Z,33.85
2019-04-27T06:32:39.537Z,32.16
2019-04-27T06:35:10.762Z,31.03
2019-04-27T06:37:39.149Z,32.48
2019-04-27T06:40:09.632Z,33.52
2019-04-27T06:42:39.828Z,32.71
2019-04-27T06:45:09.925Z,31.45
2019-04-27T06:47:39.635Z,32.23
2019-04-27T06:50:09.441Z,33.37
2019-04-27T06:52:39.041Z,33.70
2019-04-27T06:55:09.357Z,33.58
2019-04-27T06:57:39.409Z,33.29
2019-04-27T07:00:09.220Z,33.94
2019-04-27T07:02:39.234Z,32.26
2019-04-27T07:05:08.979Z,31.94
2019-04-27T07:07:39.340Z,32.65
2019-04-27T07:10:08.781Z,31.30
2019-04-27T07:12:40.728Z,32.32
2019-04-27T07:15:08.898Z,30.34
2019-04-27T07:17:38.861Z,30.01
2019-04-27T07:20:09.118Z,31.50
2019-04-27T07:22:39.668Z,31.54
2019-04-27T07:25:09.010Z,31.28
2019-04-27T07:27:39.455Z,32.97
2019-04-27T07:30:11.792Z,33.49
2019-04-27T07:32:39.257Z,33.48
2019-04-27T07:35:09.651Z,32.83
2019-04-27T07:37:39.289Z,33.73
2019-04-27T07:40:09.101Z,35.54
2019-04-27T07:42:40.878Z,35.73
2019-04-27T07:45:23.542Z,34.07
2019-04-27T07:47:52.489Z,33.99
2019-04-27T07:50:21.378Z,33.98
2019-04-27T07:52:49.968Z,34.07
2019-04-27T07:55:18.816Z,37.59
2019-04-27T07:57:47.412Z,36.20
2019-04-27T08:00:19.129Z,38.61
2019-04-27T08:02:48.649Z,40.33
2019-04-27T08:05:19.104Z,39.16
2019-04-27T08:07:49.138Z,40.91
2019-04-27T08:10:19.348Z,40.03
2019-04-27T08:12:49.835Z,40.89
2019-04-27T08:15:19.081Z,38.22
2019-04-27T08:17:49.225Z,41.99
2019-04-27T08:20:19.218Z,39.89
2019-04-27T08:22:49.648Z,37.84
2019-04-27T08:25:18.951Z,37.24
2019-04-27T08:27:54.575Z,39.82
2019-04-27T08:30:33.976Z,41.37
2019-04-27T08:33:04.374Z,44.31
2019-04-27T08:35:32.993Z,45.37
2019-04-27T08:38:01.600Z,46.01
2019-04-27T08:40:30.209Z,46.30
2019-04-27T08:42:59.328Z,48.42
2019-04-27T08:45:29.305Z,50.48
2019-04-27T08:47:59.451Z,49.12
2019-04-27T08:50:28.732Z,50.07
2019-04-27T08:52:57.291Z,50.42
2019-04-27T08:55:26.185Z,47.68
2019-04-27T08:57:54.857Z,49.60
2019-04-27T09:00:23.877Z,47.00
2019-04-27T09:02:52.752Z,47.33
2019-04-27T09:05:28.911Z,46.55
2019-04-27T09:08:16.761Z,49.08
2019-04-27T09:10:51.746Z,46.79
2019-04-27T09:13:32.449Z,45.48
2019-04-27T09:16:15.522Z,45.96
2019-04-27T09:18:44.367Z,46.07
2019-04-27T09:21:13.064Z,47.93
2019-04-27T09:23:41.925Z,46.05
2019-04-27T09:26:11.171Z,44.65
2019-04-27T09:28:40.082Z,42.98
2019-04-27T09:31:09.276Z,43.93
2019-04-27T09:33:38.251Z,42.86
2019-04-27T09:36:06.823Z,42.92
2019-04-27T09:38:35.862Z,45.26
2019-04-27T09:41:07.016Z,43.43
2019-04-27T09:43:36.747Z,45.52
2019-04-27T09:46:05.906Z,46.70
2019-04-27T09:48:36.192Z,47.30
2019-04-27T09:51:06.406Z,47.77
2019-04-27T09:53:36.426Z,46.06
2019-04-27T09:56:05.908Z,46.76
2019-04-27T09:58:36.625Z,48.95
2019-04-27T10:01:06.618Z,50.39
2019-04-27T10:03:36.160Z,50.03
2019-04-27T10:06:05.951Z,51.65
2019-04-27T10:08:36.556Z,52.22
2019-04-27T10:11:05.966Z,51.45
2019-04-27T10:13:36.399Z,51.83
2019-04-27T10:16:05.364Z,50.20
2019-04-27T10:18:33.997Z,52.37
2019-04-27T10:21:02.597Z,53.21
2019-04-27T10:23:31.317Z,51.48
2019-04-27T10:26:00.285Z,52.28
2019-04-27T10:28:29.167Z,50.92
2019-04-27T10:30:58.029Z,50.97
2019-04-27T10:33:27.821Z,50.43
2019-04-27T10:35:56.630Z,48.85
2019-04-27T10:38:25.893Z,47.14
2019-04-27T10:40:55.132Z,46.04
2019-04-27T10:43:25.837Z,46.61
2019-04-27T10:45:56.354Z,49.21
2019-04-27T10:48:26.508Z,50.38
2019-04-27T10:50:55.504Z,48.42
2019-04-27T10:53:24.196Z,47.90
2019-04-27T10:55:52.788Z,48.66
2019-04-27T10:58:21.685Z,47.54
2019-04-27T11:00:53.288Z,49.77
2019-04-27T11:03:41.356Z,50.21
2019-04-27T11:06:28.781Z,50.34
2019-04-27T11:08:57.477Z,50.00
2019-04-27T11:11:27.699Z,51.56
2019-04-27T11:13:58.241Z,49.16
2019-04-27T11:16:26.823Z,50.84
2019-04-27T11:18:56.126Z,49.18
2019-04-27T11:21:26.572Z,51.30
2019-04-27T11:23:56.022Z,51.90
2019-04-27T11:26:26.220Z,50.19
2019-04-27T11:28:54.982Z,51.57
2019-04-27T11:31:23.594Z,49.24
2019-04-27T11:33:52.780Z,52.32
2019-04-27T11:36:38.987Z,51.48
2019-04-27T11:39:12.758Z,51.76
2019-04-27T11:41:41.356Z,53.37
2019-04-27T11:44:10.214Z,51.10
2019-04-27T11:46:38.857Z,51.42
2019-04-27T11:49:07.457Z,51.44
2019-04-27T11:51:36.603Z,49.39
2019-04-27T11:54:09.308Z,49.30
2019-04-27T11:56:37.904Z,51.36
2019-04-27T11:59:07.110Z,50.88
2019-04-27T12:01:35.899Z,48.73
2019-04-27T12:04:05.857Z,48.91
2019-04-27T12:06:35.869Z,48.98
2019-04-27T12:09:06.412Z,49.13
2019-04-27T12:11:36.297Z,45.76
2019-04-27T12:14:06.248Z,47.88
2019-04-27T12:16:36.161Z,48.35
2019-04-27T12:19:06.525Z,48.02
2019-04-27T12:21:36.207Z,53.42
2019-04-27T12:24:05.817Z,53.38
2019-04-27T12:26:53.442Z,49.53
2019-04-27T12:29:24.025Z,50.66
2019-04-27T12:31:52.622Z,50.10
2019-04-27T12:34:21.254Z,47.51
2019-04-27T12:36:53.152Z,48.52
2019-04-27T12:39:20.673Z,47.45
2019-04-27T12:41:49.532Z,46.81
2019-04-27T12:44:18.222Z,47.67
2019-04-27T12:46:47.081Z,48.33
2019-04-27T12:49:16.202Z,48.78
2019-04-27T12:51:45.665Z,48.66
2019-04-27T12:54:23.618Z,48.39
2019-04-27T12:57:10.190Z,46.52
2019-04-27T12:59:59.435Z,47.63
2019-04-27T13:02:30.870Z,47.25
2019-04-27T13:04:59.793Z,47.21
2019-04-27T13:07:28.483Z,46.14
2019-04-27T13:09:57.404Z,46.77
2019-04-27T13:12:27.349Z,48.21
2019-04-27T13:14:56.044Z,49.04
2019-04-27T13:17:26.518Z,51.14
2019-04-27T13:19:56.091Z,49.52
2019-04-27T13:22:25.271Z,52.48
2019-04-27T13:24:53.897Z,52.84
2019-04-27T13:27:22.508Z,53.07
2019-04-27T13:29:51.127Z,54.17
2019-04-27T13:32:19.969Z,54.39
2019-04-27T13:34:48.585Z,53.71
2019-04-27T13:37:36.501Z,53.85
2019-04-27T13:40:09.662Z,53.66
2019-04-27T13:42:50.169Z,52.95
2019-04-27T13:45:30.625Z,54.24
2019-04-27T13:48:16.788Z,54.24
2019-04-27T13:50:49.181Z,57.18
2019-04-27T13:53:17.810Z,57.18
2019-04-27T13:55:48.405Z,55.33
2019-04-27T13:58:16.788Z,54.56
2019-04-27T14:00:45.377Z,53.69
2019-04-27T14:03:14.368Z,53.69
2019-04-27T14:05:44.295Z,54.24
2019-04-27T14:08:12.891Z,53.28
2019-04-27T14:10:41.508Z,54.45
2019-04-27T14:13:11.080Z,55.21
2019-04-27T14:15:39.823Z,54.47
2019-04-27T14:18:08.921Z,54.47
2019-04-27T14:20:38.955Z,55.00
2019-04-27T14:23:18.912Z,54.25
2019-04-27T14:25:47.512Z,54.07
2019-04-27T14:28:16.207Z,54.07
2019-04-27T14:30:44.852Z,53.94
2019-04-27T14:33:13.569Z,53.25
2019-04-27T14:35:42.214Z,52.94
2019-04-27T14:38:11.130Z,53.58
2019-04-27T14:40:39.725Z,52.14
2019-04-27T14:43:08.602Z,53.31
2019-04-27T14:45:38.309Z,53.42
2019-04-27T14:48:08.301Z,53.42
2019-04-27T14:50:40.239Z,52.09
2019-04-27T14:53:08.819Z,51.43
2019-04-27T14:55:38.779Z,49.94
2019-04-27T14:58:08.758Z,52.65
2019-04-27T15:00:38.486Z,52.20
2019-04-27T15:03:07.125Z,48.86
2019-04-27T15:05:35.734Z,48.86
2019-04-27T15:08:08.202Z,49.61
2019-04-27T15:10:36.137Z,48.14
2019-04-27T15:13:06.489Z,49.35
2019-04-27T15:15:35.449Z,49.35
2019-04-27T15:18:05.578Z,46.90
2019-04-27T15:20:41.586Z,46.90
2019-04-27T15:23:10.212Z,45.31
2019-04-27T15:25:44.965Z,46.37
2019-04-27T15:28:12.159Z,47.97
2019-04-27T15:31:03.651Z,48.47
2019-04-27T15:33:53.295Z,47.22
2019-04-27T15:36:29.899Z,46.46
2019-04-27T15:39:00.579Z,48.75
2019-04-27T15:41:44.091Z,49.31
2019-04-27T15:44:12.780Z,49.06
2019-04-27T15:46:41.643Z,45.65
2019-04-27T15:49:11.669Z,45.20
2019-04-27T15:51:40.609Z,49.30
2019-04-27T15:54:09.234Z,46.16
2019-04-27T15:56:38.078Z,46.54
2019-04-27T15:59:08.132Z,45.38
2019-04-27T16:01:39.529Z,46.95
2019-04-27T16:04:11.196Z,47.00
2019-04-27T16:06:38.518Z,48.83
2019-04-27T16:09:10.575Z,47.18
2019-04-27T16:11:39.164Z,46.12
2019-04-27T16:14:07.919Z,46.48
2019-04-27T16:16:38.513Z,46.52
2019-04-27T16:19:10.233Z,46.71
2019-04-27T16:21:41.581Z,47.62
2019-04-27T16:24:08.521Z,44.63
2019-04-27T16:26:38.668Z,44.99
2019-04-27T16:29:08.300Z,46.32
2019-04-27T16:31:38.474Z,49.53
2019-04-27T16:34:08.329Z,48.09
2019-04-27T16:36:43.177Z,46.27
2019-04-27T16:39:09.848Z,47.68
2019-04-27T16:41:38.895Z,45.52
2019-04-27T16:44:10.728Z,44.87
2019-04-27T16:46:42.808Z,44.56
2019-04-27T16:49:13.640Z,47.69
2019-04-27T16:51:40.503Z,46.78
2019-04-27T16:54:11.097Z,48.12
2019-04-27T16:56:39.723Z,45.26
2019-04-27T16:59:33.818Z,48.61
2019-04-27T17:01:41.778Z,48.51
2019-04-27T17:04:11.311Z,47.80
2019-04-27T17:06:45.876Z,48.31
2019-04-27T17:09:11.776Z,48.94
2019-04-27T17:11:43.959Z,48.75
2019-04-27T17:14:21.911Z,47.35
2019-04-27T17:16:59.255Z,48.47
2019-04-27T17:19:35.803Z,46.76
2019-04-27T17:22:04.364Z,45.97
2019-04-27T17:24:44.057Z,48.47
2019-04-27T17:27:11.140Z,47.85
2019-04-27T17:29:40.050Z,48.21
2019-04-27T17:32:10.930Z,48.65
2019-04-27T17:34:39.781Z,48.55
2019-04-27T17:37:08.432Z,47.78
2019-04-27T17:39:38.742Z,47.81
2019-04-27T17:42:08.426Z,47.65
2019-04-27T17:44:39.200Z,48.08
2019-04-27T17:47:10.324Z,50.52
2019-04-27T17:49:38.209Z,49.24
2019-04-27T17:52:08.646Z,50.35
2019-04-27T17:54:40.920Z,50.35
2019-04-27T17:57:10.035Z,49.36
2019-04-27T17:59:38.295Z,53.39
2019-04-27T18:02:08.796Z,53.39
2019-04-27T18:04:40.799Z,55.23
2019-04-27T18:07:08.924Z,50.96
2019-04-27T18:09:43.329Z,50.65
2019-04-27T18:12:14.668Z,52.37
2019-04-27T18:14:41.184Z,51.58
2019-04-27T18:17:12.146Z,51.35
2019-04-27T18:19:47.482Z,52.51
2019-04-27T18:22:17.897Z,51.78
2019-04-27T18:25:03.399Z,51.27
2019-04-27T18:27:39.006Z,49.13
2019-04-27T18:30:23.391Z,50.28
2019-04-27T18:32:52.271Z,48.69
2019-04-27T18:35:26.334Z,49.45
2019-04-27T18:37:53.578Z,49.59
2019-04-27T18:40:24.197Z,49.58
2019-04-27T18:42:52.394Z,49.94
2019-04-27T18:45:21.075Z,48.49
2019-04-27T18:47:55.697Z,49.43
2019-04-27T18:50:48.424Z,50.42
2019-04-27T18:53:23.174Z,49.15
2019-04-27T18:55:57.574Z,48.97
2019-04-27T18:58:20.721Z,49.34
2019-04-27T19:00:49.442Z,49.08
2019-04-27T19:03:18.415Z,48.99
2019-04-27T19:05:48.116Z,49.43
2019-04-27T19:08:17.811Z,48.56
2019-04-27T19:10:47.470Z,49.47
2019-04-27T19:13:16.153Z,50.32
2019-04-27T19:15:44.756Z,50.53
2019-04-27T19:18:13.635Z,53.11
2019-04-27T19:20:42.336Z,51.75
2019-04-27T19:23:11.018Z,49.85
2019-04-27T19:25:45.961Z,50.09
2019-04-27T19:28:26.208Z,49.52
2019-04-27T19:30:59.432Z,51.81
2019-04-27T19:33:30.385Z,52.42
2019-04-27T19:35:58.557Z,52.56
2019-04-27T19:38:28.918Z,53.11
2019-04-27T19:40:57.601Z,53.99
2019-04-27T19:43:26.203Z,51.79
2019-04-27T19:45:55.030Z,53.41
2019-04-27T19:48:23.695Z,53.89
2019-04-27T19:50:52.313Z,54.95
2019-04-27T19:53:20.934Z,54.34
2019-04-27T19:56:01.535Z,54.35
2019-04-27T19:58:33.583Z,53.96
2019-04-27T20:01:11.914Z,52.89
2019-04-27T20:03:49.096Z,51.54
2019-04-27T20:06:18.812Z,52.99
2019-04-27T20:08:49.507Z,50.89
2019-04-27T20:11:18.100Z,51.13
2019-04-27T20:13:46.732Z,52.13
2019-04-27T20:16:15.368Z,51.85
2019-04-27T20:18:43.984Z,50.42
2019-04-27T20:21:13.597Z,51.02
2019-04-27T20:23:42.245Z,51.40
2019-04-27T20:26:10.855Z,51.64
2019-04-27T20:28:41.318Z,53.19
2019-04-27T20:31:09.969Z,54.63
2019-04-27T20:33:38.608Z,52.72
2019-04-27T20:36:07.210Z,51.31
2019-04-27T20:38:36.834Z,54.73
2019-04-27T20:41:05.484Z,50.35
2019-04-27T20:43:34.113Z,49.50
2019-04-27T20:46:02.807Z,51.96
2019-04-27T20:48:31.531Z,50.12
2019-04-27T20:51:01.263Z,51.30
2019-04-27T20:53:35.067Z,51.36
2019-04-27T20:56:03.717Z,50.48
2019-04-27T20:58:32.583Z,51.86
2019-04-27T21:01:01.761Z,51.03
2019-04-27T21:03:41.226Z,49.25
2019-04-27T21:06:15.718Z,49.98
2019-04-27T21:08:44.534Z,51.74
2019-04-27T21:11:13.150Z,49.50
2019-04-27T21:13:41.763Z,51.92
2019-04-27T21:16:12.450Z,49.88
2019-04-27T21:18:45.076Z,48.11
2019-04-27T21:21:13.687Z,50.60
2019-04-27T21:23:42.294Z,52.07
2019-04-27T21:26:10.930Z,53.00
2019-04-27T21:28:41.570Z,52.16
2019-04-27T21:31:12.520Z,52.75
2019-04-27T21:33:40.863Z,51.96
2019-04-27T21:36:11.578Z,52.08
2019-04-27T21:38:42.551Z,49.93
2019-04-27T21:41:10.679Z,51.22
2019-04-27T21:43:39.279Z,50.19
2019-04-27T21:46:07.891Z,52.79
2019-04-27T21:48:38.508Z,51.32
2019-04-27T21:51:07.234Z,51.21
2019-04-27T21:54:03.835Z,54.18
2019-04-27T21:56:32.551Z,53.14
2019-04-27T21:59:01.178Z,50.41
2019-04-27T22:01:31.940Z,54.21
2019-04-27T22:04:01.201Z,53.75
2019-04-27T22:06:29.882Z,52.03
2019-04-27T22:08:58.486Z,51.26
2019-04-27T22:11:27.120Z,51.69
2019-04-27T22:13:55.971Z,51.60
2019-04-27T22:16:24.629Z,49.88
2019-04-27T22:18:53.223Z,50.60
2019-04-27T22:21:21.963Z,51.54
2019-04-27T22:24:05.566Z,51.84
2019-04-27T22:26:34.306Z,53.27
2019-04-27T22:29:02.974Z,52.50
2019-04-27T22:31:31.632Z,50.96
2019-04-27T22:34:01.864Z,51.35
2019-04-27T22:36:30.655Z,52.19
2019-04-27T22:39:03.159Z,52.65
2019-04-27T22:41:48.948Z,52.63
2019-04-27T22:44:27.834Z,53.00
2019-04-27T22:46:56.589Z,53.67
2019-04-27T22:49:25.190Z,54.96
2019-04-27T22:51:54.038Z,55.04
2019-04-27T22:54:22.678Z,54.53
2019-04-27T22:56:52.276Z,53.88
2019-04-27T22:59:41.313Z,53.04
2019-04-27T23:02:29.324Z,54.59
2019-04-27T23:05:01.771Z,55.14
2019-04-27T23:07:31.578Z,54.37
2019-04-27T23:10:01.500Z,52.89
2019-04-27T23:12:31.713Z,52.50
2019-04-27T23:15:00.452Z,52.28
2019-04-27T23:17:46.551Z,51.30
2019-04-27T23:20:15.531Z,53.70
2019-04-27T23:22:44.389Z,52.51
2019-04-27T23:25:13.295Z,54.57
2019-04-27T23:27:41.879Z,52.98
2019-04-27T23:30:11.383Z,52.96
2019-04-27T23:32:43.492Z,52.36
2019-04-27T23:35:12.502Z,53.29
2019-04-27T23:37:41.111Z,53.10
2019-04-27T23:40:11.196Z,53.79
2019-04-27T23:42:41.646Z,55.13
2019-04-27T23:45:10.817Z,53.72
2019-04-27T23:47:39.406Z,54.99
2019-04-27T23:50:08.451Z,54.99
2019-04-27T23:52:54.841Z,55.43
2019-04-27T23:55:25.974Z,52.84
2019-04-27T23:57:55.027Z,54.92
